Time;durP1;ratioP1;P1;durP2;ratioP2;P2;SDS_P1;SDS_P2;PMS_P1;PMS_P2;Temp;Humidity;BMP_temperature;BMP_pressure;BME280_temperature;BME280_humidity;BME280_pressure;Samples;Min_cycle;Max_cycle;Signal;HPM_P1;HPM_P2
2023/06/20 00:01:37;;;;;;;;;;;;;;;21.62;75.50;97050.19;623137;227;68091;-61
2023/06/20 00:04:04;;;;;;;;;;;;;;;21.61;75.48;97045.92;623034;227;65021;-61
2023/06/20 00:06:32;;;;;;;;;;;;;;;21.61;75.48;97048.59;623105;227;68469;-61
2023/06/20 00:08:59;;;;;;;;;;;;;;;21.62;75.47;97044.84;623140;227;66414;-61
2023/06/20 00:11:27;;;;;;;;;;;;;;;21.61;75.46;97045.92;623073;227;62861;-61
2023/06/20 00:13:54;;;;;;;;;;;;;;;21.62;75.48;97048.30;623063;227;68059;-61
2023/06/20 00:16:24;;;;;;;;;;;;;;;21.61;75.47;97044.05;623075;227;68412;-61
2023/06/20 00:18:54;;;;;;;;;;;;;;;21.62;75.45;97044.84;623065;227;65810;-61
2023/06/20 00:21:25;;;;;;;;;;;;;;;21.61;75.45;97036.02;623091;226;66271;-61
2023/06/20 00:23:51;;;;;;;;;;;;;;;21.61;75.45;97045.92;622988;226;73474;-61
2023/06/20 00:26:20;;;;;;;;;;;;;;;21.61;75.46;97037.90;623050;227;65114;-60
2023/06/20 00:28:49;;;;;;;;;;;;;;;21.61;75.43;97036.02;623097;227;66556;-61
2023/06/20 00:31:16;;;;;;;;;;;;;;;21.61;75.43;97037.90;623079;227;66048;-61
2023/06/20 00:33:44;;;;;;;;;;;;;;;21.61;75.45;97036.02;623126;227;62915;-61
2023/06/20 00:36:13;;;;;;;;;;;;;;;21.61;75.43;97038.69;623167;226;46752;-61
2023/06/20 00:38:48;;;;;;;;;;;;;;;21.61;75.45;97037.90;623038;227;66733;-61
2023/06/20 00:41:11;;;;;;;;;;;;;;;21.61;75.41;97040.58;622978;226;65645;-61
2023/06/20 00:43:39;;;;;;;;;;;;;;;21.61;75.45;97040.58;623019;227;68437;-62
2023/06/20 00:46:06;;;;;;;;;;;;;;;21.61;75.46;97041.37;623063;227;68483;-61
2023/06/20 00:48:34;;;;;;;;;;;;;;;21.60;75.46;97038.95;622959;227;64853;-61
2023/06/20 00:51:02;;;;;;;;;;;;;;;21.61;75.43;97036.02;622989;227;66205;-61
2023/06/20 00:53:30;;;;;;;;;;;;;;;21.61;75.43;97029.88;622998;227;68349;-62
2023/06/20 00:56:00;;;;;;;;;;;;;;;21.62;75.47;97034.14;623121;226;42464;-61
2023/06/20 00:58:27;;;;;;;;;;;;;;;21.61;75.45;97038.69;623018;227;68531;-61
2023/06/20 01:00:55;;;;;;;;;;;;;;;21.61;75.41;97035.23;623060;227;69386;-61
2023/06/20 01:03:23;;;;;;;;;;;;;;;21.61;75.41;97029.88;622978;227;62544;-61
2023/06/20 01:05:57;;;;;;;;;;;;;;;21.61;75.45;97033.34;623014;227;66921;-63
2023/06/20 01:08:30;;;;;;;;;;;;;;;21.61;75.45;97038.69;622817;226;68664;-60
2023/06/20 01:11:00;;;;;;;;;;;;;;;21.60;75.46;97033.61;621949;226;66328;-59
2023/06/20 01:13:36;;;;;;;;;;;;;;;21.61;75.46;97035.23;620010;227;66651;-60
2023/06/20 01:16:21;;;;;;;;;;;;;;;21.60;75.43;97033.61;622935;226;68810;-60
2023/06/20 01:19:03;;;;;;;;;;;;;;;21.61;75.45;97041.37;623029;227;65309;-60
2023/06/20 01:21:35;;;;;;;;;;;;;;;21.60;75.47;97038.95;623045;227;66403;-60
2023/06/20 01:24:04;;;;;;;;;;;;;;;21.59;75.49;97040.83;622939;226;66269;-59
2023/06/20 01:26:36;;;;;;;;;;;;;;;21.60;75.46;97044.30;622848;226;63629;-60
2023/06/20 01:29:17;;;;;;;;;;;;;;;21.60;75.48;97039.75;622954;226;68736;-60
2023/06/20 01:31:47;;;;;;;;;;;;;;;21.59;75.50;97042.72;623014;227;67232;-61
2023/06/20 01:34:16;;;;;;;;;;;;;;;21.59;75.50;97035.48;623027;226;65346;-61
2023/06/20 01:36:45;;;;;;;;;;;;;;;21.59;75.50;97029.34;623025;227;68764;-61
2023/06/20 01:39:14;;;;;;;;;;;;;;;21.59;75.50;97026.67;622937;226;68567;-61
2023/06/20 01:41:43;;;;;;;;;;;;;;;21.59;75.49;97026.67;623097;226;45038;-61
2023/06/20 01:44:12;;;;;;;;;;;;;;;21.59;75.48;97023.99;622977;227;68607;-61
2023/06/20 01:46:41;;;;;;;;;;;;;;;21.59;75.48;97026.67;623060;227;68394;-61
2023/06/20 01:49:10;;;;;;;;;;;;;;;21.59;75.50;97030.14;623079;227;62629;-61
2023/06/20 01:51:38;;;;;;;;;;;;;;;21.58;75.46;97025.88;623748;226;68834;-61
2023/06/20 01:54:08;;;;;;;;;;;;;;;21.59;75.50;97022.11;623694;227;66782;-61
2023/06/20 01:56:35;;;;;;;;;;;;;;;21.59;75.49;97022.11;623728;227;65119;-61
2023/06/20 01:59:04;;;;;;;;;;;;;;;21.60;75.48;97017.56;623770;227;68779;-61
2023/06/20 02:01:33;;;;;;;;;;;;;;;21.59;75.47;97029.34;623728;227;68758;-61
2023/06/20 02:04:01;;;;;;;;;;;;;;;21.60;75.50;97036.28;623707;227;64570;-61
2023/06/20 02:06:30;;;;;;;;;;;;;;;21.60;75.46;97033.61;623738;227;68499;-61
2023/06/20 02:08:59;;;;;;;;;;;;;;;21.61;75.48;97037.90;623711;227;68646;-61
2023/06/20 02:11:27;;;;;;;;;;;;;;;21.59;75.48;97034.69;623794;227;63773;-61
2023/06/20 02:13:55;;;;;;;;;;;;;;;21.59;75.48;97032.81;623804;227;65750;-61
2023/06/20 02:16:23;;;;;;;;;;;;;;;21.59;75.54;97034.69;623707;227;68836;-61
2023/06/20 02:18:51;;;;;;;;;;;;;;;21.59;75.51;97035.48;623712;227;64845;-61
2023/06/20 02:21:23;;;;;;;;;;;;;;;21.59;75.51;97037.37;623746;227;68834;-61
2023/06/20 02:23:51;;;;;;;;;;;;;;;21.60;75.56;97041.63;623669;227;67137;-61
2023/06/20 02:26:20;;;;;;;;;;;;;;;21.59;75.53;97035.48;623793;227;65108;-61
2023/06/20 02:28:49;;;;;;;;;;;;;;;21.58;75.58;97033.90;623743;227;68854;-61
2023/06/20 02:31:18;;;;;;;;;;;;;;;21.59;75.54;97032.02;623503;226;66216;-61
2023/06/20 02:33:47;;;;;;;;;;;;;;;21.59;75.58;97029.34;623589;226;62731;-61
2023/06/20 02:36:15;;;;;;;;;;;;;;;21.58;75.58;97025.05;623697;227;68797;-61
2023/06/20 02:38:43;;;;;;;;;;;;;;;21.58;75.62;97025.88;623782;227;68570;-61
2023/06/20 02:41:10;;;;;;;;;;;;;;;21.59;75.61;97026.67;623747;227;66143;-61
2023/06/20 02:43:38;;;;;;;;;;;;;;;21.58;75.63;97017.03;623694;227;66424;-61
2023/06/20 02:46:07;;;;;;;;;;;;;;;21.57;75.62;97024.25;623730;227;68689;-61
2023/06/20 02:48:36;;;;;;;;;;;;;;;21.58;75.67;97030.40;623658;226;65195;-61
2023/06/20 02:51:08;;;;;;;;;;;;;;;21.61;75.68;97037.90;620658;227;68655;-61
2023/06/20 02:53:42;;;;;;;;;;;;;;;21.58;75.70;97039.25;623632;226;69422;-61
2023/06/20 02:56:12;;;;;;;;;;;;;;;21.59;75.72;97037.37;623632;227;64946;-61
2023/06/20 02:58:41;;;;;;;;;;;;;;;21.59;75.72;97034.69;623630;227;66342;-61
2023/06/20 03:01:09;;;;;;;;;;;;;;;21.58;75.72;97035.75;623629;227;69104;-61
2023/06/20 03:03:38;;;;;;;;;;;;;;;21.58;75.72;97036.57;623624;227;65139;-61
2023/06/20 03:06:07;;;;;;;;;;;;;;;21.58;75.75;97041.92;623656;227;69548;-61
2023/06/20 03:08:36;;;;;;;;;;;;;;;21.58;75.74;97046.44;623609;227;66491;-61
2023/06/20 03:11:04;;;;;;;;;;;;;;;21.57;75.74;97051.00;623593;227;63510;-61
2023/06/20 03:13:31;;;;;;;;;;;;;;;21.58;75.74;97049.12;623607;227;68841;-61
2023/06/20 03:15:59;;;;;;;;;;;;;;;21.56;75.76;97052.08;623635;227;68732;-61
2023/06/20 03:18:29;;;;;;;;;;;;;;;21.57;75.76;97047.53;623676;227;62466;-61
2023/06/20 03:20:57;;;;;;;;;;;;;;;21.58;75.78;97051.79;623606;227;66120;-61
2023/06/20 03:23:25;;;;;;;;;;;;;;;21.58;75.80;97052.62;623629;227;68803;-61
2023/06/20 03:25:55;;;;;;;;;;;;;;;21.57;75.78;97053.67;623618;227;62916;-61
2023/06/20 03:28:23;;;;;;;;;;;;;;;21.57;75.79;97059.02;623583;227;68449;-60
2023/06/20 03:30:52;;;;;;;;;;;;;;;21.57;75.80;97059.02;623603;227;68994;-61
2023/06/20 03:33:20;;;;;;;;;;;;;;;21.58;75.79;97054.47;623643;227;65112;-61
2023/06/20 03:35:47;;;;;;;;;;;;;;;21.58;75.85;97057.14;623617;227;66613;-60
2023/06/20 03:38:16;;;;;;;;;;;;;;;21.57;75.85;97064.37;623612;227;69405;-60
2023/06/20 03:40:43;;;;;;;;;;;;;;;21.57;75.82;97066.25;623623;227;63806;-60
2023/06/20 03:43:11;;;;;;;;;;;;;;;21.57;75.83;97056.34;623605;227;69414;-60
2023/06/20 03:45:39;;;;;;;;;;;;;;;21.58;75.81;97059.81;623661;227;67360;-60
2023/06/20 03:48:07;;;;;;;;;;;;;;;21.57;75.85;97067.05;623647;227;64939;-60
2023/06/20 03:50:34;;;;;;;;;;;;;;;21.58;75.85;97065.16;623613;227;68593;-60
2023/06/20 03:53:02;;;;;;;;;;;;;;;21.57;75.85;97061.69;623634;227;68219;-61
2023/06/20 03:55:30;;;;;;;;;;;;;;;21.57;75.87;97052.88;623627;227;62495;-60
2023/06/20 03:57:58;;;;;;;;;;;;;;;21.57;75.86;97063.57;623657;227;65845;-60
2023/06/20 04:00:26;;;;;;;;;;;;;;;21.57;75.88;97055.55;623636;227;65902;-61
2023/06/20 04:02:54;;;;;;;;;;;;;;;21.57;75.87;97055.55;623632;227;65620;-61
2023/06/20 04:05:22;;;;;;;;;;;;;;;21.57;75.87;97060.90;623633;227;66064;-61
2023/06/20 04:07:49;;;;;;;;;;;;;;;21.57;75.88;97060.90;623658;227;69148;-60
2023/06/20 04:10:17;;;;;;;;;;;;;;;21.56;75.87;97060.11;623680;227;63039;-61
2023/06/20 04:12:45;;;;;;;;;;;;;;;21.56;75.89;97060.11;623603;227;66384;-60
2023/06/20 04:15:12;;;;;;;;;;;;;;;21.57;75.91;97055.55;623608;227;66276;-60
2023/06/20 04:17:41;;;;;;;;;;;;;;;21.56;75.92;97059.31;623616;227;64603;-61
2023/06/20 04:20:13;;;;;;;;;;;;;;;21.57;75.90;97060.90;623631;227;68776;-60
2023/06/20 04:22:42;;;;;;;;;;;;;;;21.58;75.91;97062.48;623606;227;69688;-61
2023/06/20 04:25:10;;;;;;;;;;;;;;;21.57;75.93;97066.25;623671;227;64984;-60
2023/06/20 04:27:38;;;;;;;;;;;;;;;21.57;75.96;97066.25;623627;227;66555;-61
2023/06/20 04:30:06;;;;;;;;;;;;;;;21.57;75.96;97069.72;623658;227;66559;-62
2023/06/20 04:32:34;;;;;;;;;;;;;;;21.57;75.96;97063.57;623645;227;65108;-61
2023/06/20 04:35:02;;;;;;;;;;;;;;;21.56;76.01;97073.47;623604;227;69194;-61
2023/06/20 04:37:30;;;;;;;;;;;;;;;21.57;76.00;97076.95;623693;227;68556;-61
2023/06/20 04:39:59;;;;;;;;;;;;;;;21.56;76.04;97073.47;623665;226;42578;-61
2023/06/20 04:42:27;;;;;;;;;;;;;;;21.57;76.01;97071.59;623636;227;68832;-61
2023/06/20 04:44:54;;;;;;;;;;;;;;;21.56;76.02;97072.68;623649;227;66454;-60
2023/06/20 04:47:22;;;;;;;;;;;;;;;21.56;76.05;97076.15;623583;227;65251;-60
2023/06/20 04:49:49;;;;;;;;;;;;;;;21.56;76.03;97061.98;623421;227;68863;-60
2023/06/20 04:52:19;;;;;;;;;;;;;;;21.56;76.08;97053.96;623669;226;45799;-61
2023/06/20 04:54:46;;;;;;;;;;;;;;;21.56;76.07;97051.28;623650;227;66095;-61
2023/06/20 04:57:17;;;;;;;;;;;;;;;21.56;76.09;97060.11;623646;227;69529;-61
2023/06/20 04:59:46;;;;;;;;;;;;;;;21.56;76.07;97053.96;623641;227;66782;-60
2023/06/20 05:02:14;;;;;;;;;;;;;;;21.55;76.07;97055.81;623686;227;64925;-60
2023/06/20 05:04:41;;;;;;;;;;;;;;;21.56;76.10;97051.28;623686;227;68716;-61
2023/06/20 05:07:09;;;;;;;;;;;;;;;21.55;76.11;97053.14;623663;227;66374;-61
2023/06/20 05:09:36;;;;;;;;;;;;;;;21.54;76.10;97048.88;623638;227;65100;-61
2023/06/20 05:12:04;;;;;;;;;;;;;;;21.55;76.09;97063.04;623614;227;66714;-60
2023/06/20 05:14:31;;;;;;;;;;;;;;;21.55;76.11;97061.16;623587;227;66327;-60
2023/06/20 05:17:00;;;;;;;;;;;;;;;21.55;76.13;97068.39;623711;227;64916;-61
2023/06/20 05:19:28;;;;;;;;;;;;;;;21.56;76.14;97070.00;623629;227;66533;-61
2023/06/20 05:21:55;;;;;;;;;;;;;;;21.55;76.16;97069.18;623652;227;68693;-61
2023/06/20 05:24:23;;;;;;;;;;;;;;;21.55;76.16;97073.73;623638;227;65046;-60
2023/06/20 05:26:50;;;;;;;;;;;;;;;21.55;76.17;97073.73;623604;227;68815;-60
2023/06/20 05:29:17;;;;;;;;;;;;;;;21.56;76.19;97086.05;623697;227;66475;-61
2023/06/20 05:31:45;;;;;;;;;;;;;;;21.56;76.19;97078.03;623628;227;65027;-60
2023/06/20 05:34:12;;;;;;;;;;;;;;;21.55;76.20;97074.53;623600;226;68805;-61
2023/06/20 05:36:40;;;;;;;;;;;;;;;21.55;76.21;97074.53;623265;227;69018;-60
2023/06/20 05:39:09;;;;;;;;;;;;;;;21.55;76.22;97084.43;623534;227;62878;-60
2023/06/20 05:41:36;;;;;;;;;;;;;;;21.55;76.22;97085.23;623618;227;69526;-61
2023/06/20 05:44:05;;;;;;;;;;;;;;;21.54;76.22;97083.64;623627;227;68687;-60
2023/06/20 05:46:32;;;;;;;;;;;;;;;21.55;76.24;97079.88;623618;227;63080;-60
2023/06/20 05:49:00;;;;;;;;;;;;;;;21.55;76.24;97093.25;623579;227;68740;-60
2023/06/20 05:51:29;;;;;;;;;;;;;;;21.55;76.24;97092.45;623648;227;68710;-60
2023/06/20 05:53:57;;;;;;;;;;;;;;;21.55;76.27;97095.92;623696;227;65089;-62
2023/06/20 05:56:25;;;;;;;;;;;;;;;21.55;76.28;97089.78;623535;227;68484;-62
2023/06/20 05:58:53;;;;;;;;;;;;;;;21.54;76.31;97083.64;623620;227;68728;-62
2023/06/20 06:01:20;;;;;;;;;;;;;;;21.55;76.31;97084.43;623618;227;64813;-63
2023/06/20 06:03:48;;;;;;;;;;;;;;;21.55;76.31;97079.08;623645;227;69021;-60
2023/06/20 06:06:15;;;;;;;;;;;;;;;21.54;76.30;97072.94;622425;227;68699;-61
2023/06/20 06:08:43;;;;;;;;;;;;;;;21.54;76.31;97082.84;621928;228;65293;-60
2023/06/20 06:11:10;;;;;;;;;;;;;;;21.52;76.05;97071.61;620469;227;68851;-61
2023/06/20 06:13:39;;;;;;;;;;;;;;;21.54;76.17;97078.28;623219;227;68652;-60
2023/06/20 06:16:06;;;;;;;;;;;;;;;21.55;76.46;97087.11;623476;227;64996;-60
2023/06/20 06:18:34;;;;;;;;;;;;;;;21.55;76.42;97089.78;623574;227;66528;-60
2023/06/20 06:21:01;;;;;;;;;;;;;;;21.56;76.36;97091.40;623590;227;68499;-61
2023/06/20 06:23:29;;;;;;;;;;;;;;;21.55;76.25;97093.25;623526;227;64962;-60
2023/06/20 06:25:56;;;;;;;;;;;;;;;21.56;76.23;97091.40;620821;227;66566;-60
2023/06/20 06:28:26;;;;;;;;;;;;;;;21.56;76.18;97080.70;622542;228;68708;-60
2023/06/20 06:30:53;;;;;;;;;;;;;;;21.56;76.10;97078.83;622544;228;65073;-60
2023/06/20 06:33:21;;;;;;;;;;;;;;;21.57;76.10;97076.95;622524;228;68718;-60
2023/06/20 06:35:49;;;;;;;;;;;;;;;21.57;76.01;97071.59;622541;228;68686;-60
2023/06/20 06:38:17;;;;;;;;;;;;;;;21.57;76.00;97072.39;622582;228;64887;-59
2023/06/20 06:40:45;;;;;;;;;;;;;;;21.57;75.97;97072.39;622557;228;68742;-60
2023/06/20 06:43:13;;;;;;;;;;;;;;;21.59;75.95;97080.16;622446;228;66428;-60
2023/06/20 06:45:40;;;;;;;;;;;;;;;21.59;75.96;97074.80;622588;228;65272;-60
2023/06/20 06:48:10;;;;;;;;;;;;;;;21.61;75.94;97069.98;622543;228;68762;-60
2023/06/20 06:50:37;;;;;;;;;;;;;;;21.59;75.92;97067.58;619749;228;66675;-60
2023/06/20 06:53:05;;;;;;;;;;;;;;;21.61;75.91;97067.31;618850;229;64976;-60
2023/06/20 06:55:32;;;;;;;;;;;;;;;21.61;75.90;97072.67;618795;229;68903;-60
2023/06/20 06:58:00;;;;;;;;;;;;;;;21.61;75.90;97069.98;618747;229;68654;-60
2023/06/20 07:00:29;;;;;;;;;;;;;;;21.62;75.89;97068.91;618849;229;65010;-60
2023/06/20 07:02:56;;;;;;;;;;;;;;;21.61;75.90;97060.09;618728;229;66679;-60
2023/06/20 07:05:24;;;;;;;;;;;;;;;21.61;75.89;97065.44;618609;229;66657;-60
2023/06/20 07:07:51;;;;;;;;;;;;;;;21.62;76.02;97066.23;618887;229;62913;-60
2023/06/20 07:10:18;;;;;;;;;;;;;;;21.61;76.02;97070.78;618855;229;68587;-60
2023/06/20 07:12:46;;;;;;;;;;;;;;;21.62;76.01;97079.60;618782;229;68720;-60
2023/06/20 07:15:13;;;;;;;;;;;;;;;21.62;75.97;97079.60;618633;228;65069;-60
2023/06/20 07:17:41;;;;;;;;;;;;;;;21.62;75.96;97075.05;618694;229;69049;-60
2023/06/20 07:20:09;;;;;;;;;;;;;;;21.63;75.93;97073.97;618826;229;68632;-60
2023/06/20 07:22:37;;;;;;;;;;;;;;;21.63;75.90;97076.64;618835;229;62891;-60
2023/06/20 07:25:07;;;;;;;;;;;;;;;21.63;75.91;97089.22;618873;229;68775;-60
2023/06/20 07:27:35;;;;;;;;;;;;;;;21.63;75.91;97084.66;618788;229;68799;-60
2023/06/20 07:30:02;;;;;;;;;;;;;;;21.63;76.01;97081.20;618579;229;63818;-60
2023/06/20 07:32:30;;;;;;;;;;;;;;;21.64;75.93;97083.61;618770;229;66610;-60
2023/06/20 07:34:57;;;;;;;;;;;;;;;21.63;75.85;97073.97;618854;229;66652;-60
2023/06/20 07:37:25;;;;;;;;;;;;;;;21.64;75.95;97082.81;618826;229;62864;-60
2023/06/20 07:39:52;;;;;;;;;;;;;;;21.64;75.98;97086.28;618820;229;66534;-60
2023/06/20 07:42:20;;;;;;;;;;;;;;;21.64;75.91;97093.52;618841;229;68479;-61
2023/06/20 07:44:47;;;;;;;;;;;;;;;21.65;75.91;97093.22;618799;229;65048;-60
2023/06/20 07:47:15;;;;;;;;;;;;;;;21.65;75.90;97087.08;618830;229;68781;-60
2023/06/20 07:49:42;;;;;;;;;;;;;;;21.65;75.96;97089.75;620155;228;68672;-60
2023/06/20 07:52:10;;;;;;;;;;;;;;;21.66;74.95;97080.64;622547;228;62936;-61
2023/06/20 07:54:37;;;;;;;;;;;;;;;21.69;74.25;97093.50;622597;228;68756;-60
2023/06/20 07:57:05;;;;;;;;;;;;;;;21.69;75.62;97085.47;622605;228;68175;-60
2023/06/20 07:59:32;;;;;;;;;;;;;;;21.67;75.95;97088.41;622570;228;65219;-60
2023/06/20 08:02:00;;;;;;;;;;;;;;;21.67;75.82;97093.76;622512;228;68464;-60
2023/06/20 08:04:27;;;;;;;;;;;;;;;21.68;75.83;97094.55;622540;228;68783;-60
2023/06/20 08:06:55;;;;;;;;;;;;;;;21.68;75.29;97089.20;622525;228;65019;-61
2023/06/20 08:09:22;;;;;;;;;;;;;;;21.68;74.31;97098.02;622578;228;66372;-61
2023/06/20 08:11:50;;;;;;;;;;;;;;;21.69;75.37;97096.17;622580;228;66346;-60
2023/06/20 08:14:18;;;;;;;;;;;;;;;21.69;75.74;97104.98;622575;228;62952;-60
2023/06/20 08:16:46;;;;;;;;;;;;;;;21.69;75.73;97109.55;622655;228;68544;-60
2023/06/20 08:19:13;;;;;;;;;;;;;;;21.68;75.62;97106.05;622491;228;68489;-60
2023/06/20 08:21:41;;;;;;;;;;;;;;;21.69;75.65;97109.55;622560;228;62823;-60
2023/06/20 08:24:09;;;;;;;;;;;;;;;21.69;75.64;97112.22;622570;228;66244;-60
2023/06/20 08:26:36;;;;;;;;;;;;;;;21.69;75.65;97109.55;622378;227;68679;-60
2023/06/20 08:29:04;;;;;;;;;;;;;;;21.68;75.62;97106.05;622563;228;64923;-62
2023/06/20 08:31:38;;;;;;;;;;;;;;;21.68;75.56;97114.06;622606;228;68933;-61
2023/06/20 08:34:06;;;;;;;;;;;;;;;21.68;75.58;97111.39;622509;228;68655;-61
2023/06/20 08:36:33;;;;;;;;;;;;;;;21.68;75.60;97118.63;622542;228;65086;-61
2023/06/20 08:39:01;;;;;;;;;;;;;;;21.69;75.62;97122.92;622569;228;66542;-60
2023/06/20 08:41:29;;;;;;;;;;;;;;;21.67;75.64;97120.50;622534;228;68517;-60
2023/06/20 08:43:57;;;;;;;;;;;;;;;21.68;75.66;97121.30;622511;228;65088;-61
2023/06/20 08:46:24;;;;;;;;;;;;;;;21.69;75.64;97133.62;622559;228;68807;-61
2023/06/20 08:48:52;;;;;;;;;;;;;;;21.68;75.57;97124.77;622545;228;68795;-61
2023/06/20 08:51:21;;;;;;;;;;;;;;;21.68;75.68;97135.47;622418;228;65105;-61
2023/06/20 08:53:50;;;;;;;;;;;;;;;21.69;75.80;97128.27;622520;228;68720;-61
2023/06/20 08:56:19;;;;;;;;;;;;;;;21.68;75.69;97129.32;622477;228;66646;-60
2023/06/20 08:58:49;;;;;;;;;;;;;;;21.69;75.79;97138.97;622609;228;45072;-60
2023/06/20 09:01:17;;;;;;;;;;;;;;;21.68;75.77;97134.67;616823;228;70066;-61
2023/06/20 09:03:44;;;;;;;;;;;;;;;21.69;75.78;97133.62;622521;228;68816;-61
2023/06/20 09:06:12;;;;;;;;;;;;;;;21.69;75.73;97128.27;622568;228;65049;-60
2023/06/20 09:08:40;;;;;;;;;;;;;;;21.68;75.67;97126.64;622592;228;68779;-60
2023/06/20 09:11:08;;;;;;;;;;;;;;;21.69;75.70;97130.94;622517;228;66418;-60
2023/06/20 09:13:36;;;;;;;;;;;;;;;21.69;75.67;97133.62;622530;228;65182;-60
2023/06/20 09:16:11;;;;;;;;;;;;;;;21.69;75.65;97130.94;622585;228;68832;-60
2023/06/20 09:18:40;;;;;;;;;;;;;;;21.69;75.71;97130.94;622472;228;68988;-60
2023/06/20 09:21:09;;;;;;;;;;;;;;;21.69;75.74;97138.97;623468;227;62676;-60
2023/06/20 09:23:36;;;;;;;;;;;;;;;21.69;75.71;97133.62;623408;226;66591;-60
2023/06/20 09:26:06;;;;;;;;;;;;;;;21.71;74.90;97131.45;623419;227;68710;-60
2023/06/20 09:28:33;;;;;;;;;;;;;;;21.71;75.52;97139.47;622108;226;62921;-60
2023/06/20 09:31:01;;;;;;;;;;;;;;;21.71;75.75;97131.45;616316;230;66535;-60
2023/06/20 09:33:29;;;;;;;;;;;;;;;21.70;75.81;97136.00;615686;230;66621;-60
2023/06/20 09:36:17;;;;;;;;;;;;;;;21.70;75.76;97129.86;616465;230;64797;-60
2023/06/20 09:38:44;;;;;;;;;;;;;;;21.71;75.77;97136.80;616357;230;66227;-59
2023/06/20 09:41:16;;;;;;;;;;;;;;;21.70;75.78;97138.67;616453;230;66517;-59
2023/06/20 09:43:46;;;;;;;;;;;;;;;21.71;75.78;97126.89;616438;230;65164;-59
2023/06/20 09:46:13;;;;;;;;;;;;;;;21.71;75.78;97136.80;616096;229;68921;-59
2023/06/20 09:48:41;;;;;;;;;;;;;;;21.71;75.79;97131.45;616404;230;68471;-61
2023/06/20 09:51:09;;;;;;;;;;;;;;;21.72;75.75;97127.72;616460;229;63864;-59
2023/06/20 09:53:41;;;;;;;;;;;;;;;21.71;74.81;97134.92;616237;230;66581;-61
2023/06/20 09:56:09;;;;;;;;;;;;;;;21.72;75.55;97149.12;616384;229;66643;-60
2023/06/20 09:58:37;;;;;;;;;;;;;;;21.72;74.83;97133.07;616498;230;63055;-60
2023/06/20 10:01:04;;;;;;;;;;;;;;;21.73;75.50;97129.31;616459;230;66606;-60
2023/06/20 10:03:32;;;;;;;;;;;;;;;21.74;75.67;97130.90;616503;230;66469;-60
2023/06/20 10:06:01;;;;;;;;;;;;;;;21.72;74.73;97135.74;616444;230;62614;-60
2023/06/20 10:08:29;;;;;;;;;;;;;;;21.73;74.29;97134.66;616374;230;66430;-60
2023/06/20 10:10:57;;;;;;;;;;;;;;;21.74;75.47;97133.58;616506;230;66658;-60
2023/06/20 10:13:25;;;;;;;;;;;;;;;21.73;75.63;97126.63;616412;230;62719;-59
2023/06/20 10:15:53;;;;;;;;;;;;;;;21.73;75.77;97134.66;616500;230;68729;-59
2023/06/20 10:18:35;;;;;;;;;;;;;;;21.73;75.76;97140.01;616500;230;68707;-59
2023/06/20 10:21:04;;;;;;;;;;;;;;;21.72;75.80;97141.09;616348;230;62886;-60
2023/06/20 10:23:32;;;;;;;;;;;;;;;21.73;75.73;97140.01;609557;230;70047;-61
2023/06/20 10:26:01;;;;;;;;;;;;;;;21.74;72.42;97136.25;616497;230;68537;-60
2023/06/20 10:28:29;;;;;;;;;;;;;;;21.75;71.97;97140.55;616405;230;62893;-59
2023/06/20 10:30:58;;;;;;;;;;;;;;;21.76;71.05;97134.11;616531;230;68887;-60
2023/06/20 10:33:27;;;;;;;;;;;;;;;21.76;70.18;97123.41;616234;230;68938;-60
2023/06/20 10:35:59;;;;;;;;;;;;;;;21.78;70.33;97125.83;616442;230;65002;-59
2023/06/20 10:38:27;;;;;;;;;;;;;;;21.77;69.20;97116.18;616478;230;66699;-59
2023/06/20 10:41:14;;;;;;;;;;;;;;;21.79;69.89;97120.19;616508;230;68453;-60
2023/06/20 10:43:52;;;;;;;;;;;;;;;21.80;72.72;97129.00;616381;230;65027;-60
2023/06/20 10:46:21;;;;;;;;;;;;;;;21.77;69.91;97125.03;616565;230;68746;-59
2023/06/20 10:48:49;;;;;;;;;;;;;;;21.80;69.80;97129.83;616494;230;68687;-60
2023/06/20 10:51:16;;;;;;;;;;;;;;;21.79;69.44;97132.77;615809;230;62849;-59
2023/06/20 10:53:44;;;;;;;;;;;;;;;21.81;74.34;97127.95;615889;230;68474;-61
2023/06/20 10:56:27;;;;;;;;;;;;;;;21.78;75.09;97118.59;615794;230;66581;-60
2023/06/20 10:58:55;;;;;;;;;;;;;;;21.76;73.44;97120.73;615850;230;63049;-60
2023/06/20 11:01:24;;;;;;;;;;;;;;;21.78;74.84;97121.27;615824;230;66744;-60
2023/06/20 11:03:52;;;;;;;;;;;;;;;21.76;75.26;97118.06;615727;229;68714;-60
2023/06/20 11:06:19;;;;;;;;;;;;;;;21.76;75.32;97125.29;615828;230;63026;-60
2023/06/20 11:08:47;;;;;;;;;;;;;;;21.76;75.30;97117.27;615868;230;66622;-59
2023/06/20 11:11:14;;;;;;;;;;;;;;;21.75;75.30;97121.82;615838;230;66468;-59
2023/06/20 11:13:43;;;;;;;;;;;;;;;21.76;75.33;97117.27;615902;230;61982;-59
2023/06/20 11:16:19;;;;;;;;;;;;;;;21.76;75.36;97118.06;615901;230;68787;-60
2023/06/20 11:18:47;;;;;;;;;;;;;;;21.76;75.36;97110.03;615823;228;68473;-62
2023/06/20 11:21:17;;;;;;;;;;;;;;;21.75;75.40;97121.82;615829;230;65131;-61
2023/06/20 11:23:45;;;;;;;;;;;;;;;21.77;75.44;97121.53;615836;230;68947;-61
2023/06/20 11:26:12;;;;;;;;;;;;;;;21.76;75.02;97122.61;615850;230;68776;-62
2023/06/20 11:28:40;;;;;;;;;;;;;;;21.76;69.72;97120.73;615872;230;65262;-62
2023/06/20 11:31:10;;;;;;;;;;;;;;;21.79;67.66;97120.19;615853;230;68729;-62
2023/06/20 11:33:38;;;;;;;;;;;;;;;21.81;68.45;97126.07;615694;229;68693;-63
2023/06/20 11:36:05;;;;;;;;;;;;;;;21.84;68.43;97124.72;615895;230;65008;-62
2023/06/20 11:38:34;;;;;;;;;;;;;;;21.84;66.88;97128.20;615893;230;68798;-61
2023/06/20 11:41:07;;;;;;;;;;;;;;;21.85;67.30;97124.47;615895;230;66158;-60
2023/06/20 11:43:35;;;;;;;;;;;;;;;21.84;66.79;97117.50;615781;229;63036;-64
2023/06/20 11:46:03;;;;;;;;;;;;;;;21.86;66.38;97117.23;615854;230;68687;-61
2023/06/20 11:48:30;;;;;;;;;;;;;;;21.86;66.77;97118.03;615754;230;66862;-63
2023/06/20 11:50:59;;;;;;;;;;;;;;;21.86;71.34;97107.33;615812;230;64930;-60
2023/06/20 11:53:33;;;;;;;;;;;;;;;21.85;74.35;97107.59;615859;230;66611;-60
2023/06/20 11:56:02;;;;;;;;;;;;;;;21.82;74.41;97100.91;615869;229;68815;-61
2023/06/20 11:58:31;;;;;;;;;;;;;;;21.83;72.23;97099.85;615871;230;65015;-63
2023/06/20 12:01:04;;;;;;;;;;;;;;;21.85;68.76;97103.06;615703;229;66537;-61
2023/06/20 12:03:32;;;;;;;;;;;;;;;21.86;67.31;97101.19;615793;229;69849;-60
2023/06/20 12:05:59;;;;;;;;;;;;;;;21.86;67.64;97101.19;615879;230;62981;-61
2023/06/20 12:08:34;;;;;;;;;;;;;;;21.87;65.88;97092.07;615884;230;65898;-61
2023/06/20 12:11:03;;;;;;;;;;;;;;;21.87;67.83;97086.72;615836;230;66590;-60
2023/06/20 12:13:32;;;;;;;;;;;;;;;21.86;67.22;97096.63;615788;230;65787;-63
2023/06/20 12:15:59;;;;;;;;;;;;;;;21.87;68.13;97095.54;615837;230;68746;-61
2023/06/20 12:18:27;;;;;;;;;;;;;;;21.87;66.08;97094.74;615899;230;68481;-62
2023/06/20 12:20:54;;;;;;;;;;;;;;;21.87;66.97;97092.86;615955;230;64919;-61
2023/06/20 12:23:22;;;;;;;;;;;;;;;21.88;68.22;97088.31;615826;230;66283;-61
2023/06/20 12:25:49;;;;;;;;;;;;;;;21.88;73.09;97096.33;615851;230;66456;-61
2023/06/20 12:28:18;;;;;;;;;;;;;;;21.84;69.78;97096.09;615882;230;63151;-61
2023/06/20 12:30:45;;;;;;;;;;;;;;;21.86;68.97;97096.63;615852;230;68730;-60
2023/06/20 12:33:13;;;;;;;;;;;;;;;21.86;73.66;97101.98;615898;230;68643;-61
2023/06/20 12:35:41;;;;;;;;;;;;;;;21.84;74.03;97095.30;615835;230;62949;-61
2023/06/20 12:38:10;;;;;;;;;;;;;;;21.83;72.81;97097.17;615791;230;66693;-61
2023/06/20 12:40:37;;;;;;;;;;;;;;;21.83;68.14;97091.03;615884;230;68577;-60
2023/06/20 12:43:05;;;;;;;;;;;;;;;21.85;73.32;97095.03;615789;230;62921;-60
2023/06/20 12:45:33;;;;;;;;;;;;;;;21.84;74.05;97093.42;615904;230;68737;-61
2023/06/20 12:48:00;;;;;;;;;;;;;;;21.83;74.21;97086.48;615902;230;68735;-61
2023/06/20 12:50:28;;;;;;;;;;;;;;;21.81;74.41;97091.30;616290;229;62973;-60
2023/06/20 12:52:55;;;;;;;;;;;;;;;21.82;74.43;97084.86;616587;230;68722;-60
2023/06/20 12:55:23;;;;;;;;;;;;;;;21.82;74.39;97087.53;616592;230;68426;-60